TLPL/UVF METAR and TAF weather

Enter ICAO airport designator
Station Type Date Time Source
TLPL METAR 2019/02/22 23:00 UTC NOAA

TLPL 222300Z 08017KT 9999 FEW027 26/19 Q1017 NOSIG


Station Type Date Time Source
TLPL Decoded METAR 2019/02/22 23:00 UTC NOAA

Hewanorra International Airport, Saint Lucia (TLPL) 13-45N 060-57W 10M
Feb 22, 2019 - 06:00 PM EST / 2019.02.22 2300 UTC
Wind: from the E (080 degrees) at 20 MPH (17 KT):0
Visibility: greater than 7 mile(s):0
Sky conditions: mostly clear
Temperature: 78 F (26 C)
Dew Point: 66 F (19 C)
Relative Humidity: 65%
Pressure (altimeter): 30.03 in. Hg (1017 hPa)
ob: TLPL 222300Z 08017KT 9999 FEW027 26/19 Q1017 NOSIG
cycle: 23

Station Type Date Time Source
TLPL TAF 2019/02/22 18:01 UTC NOAA

TAF TLPL 221700Z 2218/2318 08020KT 9999 SCT026 PROB30
TEMPO 2300/2318 SHRA


Example: see airport list